sensor_id;sensor_type;location;lat;lon;timestamp;pressure;altitude;pressure_sealevel;temperature;humidity
73566;BME280;61846;52.970;-3.168;2023-06-04T00:01:07;101631.81;;;15.88;33.65
73566;BME280;61846;52.970;-3.168;2023-06-04T00:03:33;101631.15;;;16.22;33.94
73566;BME280;61846;52.970;-3.168;2023-06-04T00:05:57;101632.69;;;16.42;33.05
73566;BME280;61846;52.970;-3.168;2023-06-04T00:08:23;101631.13;;;16.26;32.92
73566;BME280;61846;52.970;-3.168;2023-06-04T00:10:48;101629.37;;;16.19;32.63
73566;BME280;61846;52.970;-3.168;2023-06-04T00:13:14;101631.16;;;15.72;34.75
73566;BME280;61846;52.970;-3.168;2023-06-04T00:15:39;101625.91;;;16.49;32.99
73566;BME280;61846;52.970;-3.168;2023-06-04T00:18:05;101630.35;;;16.36;32.35
73566;BME280;61846;52.970;-3.168;2023-06-04T00:20:30;101628.63;;;16.49;33.20
73566;BME280;61846;52.970;-3.168;2023-06-04T00:22:55;101631.38;;;15.40;33.42
73566;BME280;61846;52.970;-3.168;2023-06-04T00:25:21;101635.28;;;16.20;32.65
73566;BME280;61846;52.970;-3.168;2023-06-04T00:27:46;101633.38;;;16.26;32.76
73566;BME280;61846;52.970;-3.168;2023-06-04T00:30:13;101632.83;;;15.96;33.28
73566;BME280;61846;52.970;-3.168;2023-06-04T00:32:37;101635.16;;;15.12;33.95
73566;BME280;61846;52.970;-3.168;2023-06-04T00:35:03;101630.92;;;15.60;32.81
73566;BME280;61846;52.970;-3.168;2023-06-04T00:37:29;101629.67;;;16.17;33.03
73566;BME280;61846;52.970;-3.168;2023-06-04T00:39:53;101627.23;;;16.25;32.60
73566;BME280;61846;52.970;-3.168;2023-06-04T00:42:19;101628.92;;;15.92;33.17
73566;BME280;61846;52.970;-3.168;2023-06-04T00:44:44;101632.67;;;15.76;32.50
73566;BME280;61846;52.970;-3.168;2023-06-04T00:47:10;101634.54;;;14.91;34.40
73566;BME280;61846;52.970;-3.168;2023-06-04T00:49:35;101633.56;;;15.93;32.67
73566;BME280;61846;52.970;-3.168;2023-06-04T00:52:00;101636.24;;;15.39;33.58
73566;BME280;61846;52.970;-3.168;2023-06-04T00:54:26;101636.08;;;14.76;34.45
73566;BME280;61846;52.970;-3.168;2023-06-04T00:56:52;101638.08;;;15.28;33.33
73566;BME280;61846;52.970;-3.168;2023-06-04T00:59:17;101638.86;;;15.23;33.62
73566;BME280;61846;52.970;-3.168;2023-06-04T01:01:47;101637.16;;;15.53;33.03
73566;BME280;61846;52.970;-3.168;2023-06-04T01:04:14;101640.83;;;15.70;33.48
73566;BME280;61846;52.970;-3.168;2023-06-04T01:06:37;101639.76;;;14.69;34.34
73566;BME280;61846;52.970;-3.168;2023-06-04T01:09:00;101642.20;;;14.67;34.56
73566;BME280;61846;52.970;-3.168;2023-06-04T01:11:32;101640.49;;;14.64;34.66
73566;BME280;61846;52.970;-3.168;2023-06-04T01:13:50;101640.55;;;14.73;34.31
73566;BME280;61846;52.970;-3.168;2023-06-04T01:16:16;101638.23;;;15.17;33.94
73566;BME280;61846;52.970;-3.168;2023-06-04T01:18:42;101640.38;;;14.85;35.39
73566;BME280;61846;52.970;-3.168;2023-06-04T01:21:09;101640.71;;;14.88;34.54
73566;BME280;61846;52.970;-3.168;2023-06-04T01:23:40;101638.55;;;15.25;34.57
73566;BME280;61846;52.970;-3.168;2023-06-04T01:25:58;101637.44;;;15.09;34.97
73566;BME280;61846;52.970;-3.168;2023-06-04T01:28:24;101637.74;;;15.15;35.16
73566;BME280;61846;52.970;-3.168;2023-06-04T01:30:49;101635.90;;;14.38;36.83
73566;BME280;61846;52.970;-3.168;2023-06-04T01:33:17;101638.12;;;14.64;35.26
73566;BME280;61846;52.970;-3.168;2023-06-04T01:35:40;101640.23;;;14.66;35.05
73566;BME280;61846;52.970;-3.168;2023-06-04T01:38:05;101643.91;;;15.09;34.50
73566;BME280;61846;52.970;-3.168;2023-06-04T01:40:30;101645.29;;;14.75;34.65
73566;BME280;61846;52.970;-3.168;2023-06-04T01:42:56;101648.04;;;14.95;35.07
73566;BME280;61846;52.970;-3.168;2023-06-04T01:45:22;101651.86;;;14.55;35.79
73566;BME280;61846;52.970;-3.168;2023-06-04T01:47:47;101654.22;;;14.32;35.92
73566;BME280;61846;52.970;-3.168;2023-06-04T01:50:12;101652.42;;;14.51;35.57
73566;BME280;61846;52.970;-3.168;2023-06-04T01:52:38;101653.55;;;14.05;36.51
73566;BME280;61846;52.970;-3.168;2023-06-04T01:55:03;101651.68;;;14.03;36.81
73566;BME280;61846;52.970;-3.168;2023-06-04T01:57:29;101651.82;;;14.87;36.52
73566;BME280;61846;52.970;-3.168;2023-06-04T01:59:54;101652.11;;;14.70;37.49
73566;BME280;61846;52.970;-3.168;2023-06-04T02:02:20;101653.80;;;13.95;38.88
73566;BME280;61846;52.970;-3.168;2023-06-04T02:04:45;101654.88;;;13.48;39.59
73566;BME280;61846;52.970;-3.168;2023-06-04T02:07:11;101656.68;;;13.38;39.51
73566;BME280;61846;52.970;-3.168;2023-06-04T02:09:36;101655.03;;;14.16;38.32
73566;BME280;61846;52.970;-3.168;2023-06-04T02:12:01;101656.62;;;13.13;40.04
73566;BME280;61846;52.970;-3.168;2023-06-04T02:14:27;101656.51;;;13.35;38.41
73566;BME280;61846;52.970;-3.168;2023-06-04T02:16:52;101652.59;;;14.35;36.63
73566;BME280;61846;52.970;-3.168;2023-06-04T02:19:18;101654.57;;;14.41;35.38
73566;BME280;61846;52.970;-3.168;2023-06-04T02:21:44;101657.27;;;13.99;36.13
73566;BME280;61846;52.970;-3.168;2023-06-04T02:24:09;101660.46;;;14.37;35.02
73566;BME280;61846;52.970;-3.168;2023-06-04T02:26:35;101665.70;;;13.51;37.22
73566;BME280;61846;52.970;-3.168;2023-06-04T02:29:00;101666.23;;;13.29;37.17
73566;BME280;61846;52.970;-3.168;2023-06-04T02:31:26;101665.16;;;14.12;35.24
73566;BME280;61846;52.970;-3.168;2023-06-04T02:33:51;101666.22;;;14.08;35.09
73566;BME280;61846;52.970;-3.168;2023-06-04T02:36:17;101665.99;;;13.72;36.73
73566;BME280;61846;52.970;-3.168;2023-06-04T02:38:42;101663.82;;;14.04;37.29
73566;BME280;61846;52.970;-3.168;2023-06-04T02:41:08;101663.93;;;14.28;37.59
73566;BME280;61846;52.970;-3.168;2023-06-04T02:43:33;101664.60;;;14.03;37.69
73566;BME280;61846;52.970;-3.168;2023-06-04T02:45:59;101659.80;;;14.31;37.98
73566;BME280;61846;52.970;-3.168;2023-06-04T02:48:24;101655.31;;;14.02;38.63
73566;BME280;61846;52.970;-3.168;2023-06-04T02:50:49;101654.46;;;13.67;38.91
73566;BME280;61846;52.970;-3.168;2023-06-04T02:53:15;101657.83;;;13.58;39.18
73566;BME280;61846;52.970;-3.168;2023-06-04T02:55:40;101657.93;;;12.63;40.51
73566;BME280;61846;52.970;-3.168;2023-06-04T02:58:06;101659.41;;;12.12;41.29
73566;BME280;61846;52.970;-3.168;2023-06-04T03:00:31;101659.93;;;13.19;40.33
73566;BME280;61846;52.970;-3.168;2023-06-04T03:02:57;101657.52;;;12.68;40.40
73566;BME280;61846;52.970;-3.168;2023-06-04T03:05:22;101659.65;;;12.90;40.27
73566;BME280;61846;52.970;-3.168;2023-06-04T03:07:48;101659.58;;;11.65;42.26
73566;BME280;61846;52.970;-3.168;2023-06-04T03:10:15;101656.51;;;13.08;39.46
73566;BME280;61846;52.970;-3.168;2023-06-04T03:12:39;101658.74;;;13.07;40.12
73566;BME280;61846;52.970;-3.168;2023-06-04T03:15:06;101659.72;;;13.20;39.65
73566;BME280;61846;52.970;-3.168;2023-06-04T03:17:30;101662.81;;;12.54;40.25
73566;BME280;61846;52.970;-3.168;2023-06-04T03:19:56;101662.45;;;13.09;39.48
73566;BME280;61846;52.970;-3.168;2023-06-04T03:22:21;101662.31;;;12.93;39.83
73566;BME280;61846;52.970;-3.168;2023-06-04T03:24:47;101661.02;;;13.07;39.29
73566;BME280;61846;52.970;-3.168;2023-06-04T03:27:12;101661.71;;;13.02;39.31
73566;BME280;61846;52.970;-3.168;2023-06-04T03:29:38;101659.27;;;12.86;39.50
73566;BME280;61846;52.970;-3.168;2023-06-04T03:32:04;101655.98;;;12.95;38.99
73566;BME280;61846;52.970;-3.168;2023-06-04T03:34:29;101655.96;;;12.44;39.90
73566;BME280;61846;52.970;-3.168;2023-06-04T03:36:55;101655.46;;;12.80;39.25
73566;BME280;61846;52.970;-3.168;2023-06-04T03:39:20;101654.25;;;13.05;38.53
73566;BME280;61846;52.970;-3.168;2023-06-04T03:41:46;101657.22;;;11.22;41.15
73566;BME280;61846;52.970;-3.168;2023-06-04T03:44:13;101653.37;;;12.98;39.13
73566;BME280;61846;52.970;-3.168;2023-06-04T03:46:37;101652.89;;;12.91;39.11
73566;BME280;61846;52.970;-3.168;2023-06-04T03:49:02;101657.06;;;12.45;40.08
73566;BME280;61846;52.970;-3.168;2023-06-04T03:51:28;101655.48;;;12.13;40.88
73566;BME280;61846;52.970;-3.168;2023-06-04T03:53:53;101660.82;;;11.39;42.17
73566;BME280;61846;52.970;-3.168;2023-06-04T03:56:19;101657.46;;;11.40;41.82
73566;BME280;61846;52.970;-3.168;2023-06-04T03:58:44;101650.87;;;12.26;39.66
73566;BME280;61846;52.970;-3.168;2023-06-04T04:01:10;101649.27;;;12.12;40.61
73566;BME280;61846;52.970;-3.168;2023-06-04T04:03:35;101652.14;;;11.94;41.18
73566;BME280;61846;52.970;-3.168;2023-06-04T04:06:01;101650.94;;;12.35;40.18
73566;BME280;61846;52.970;-3.168;2023-06-04T04:08:26;101654.17;;;11.96;41.50
73566;BME280;61846;52.970;-3.168;2023-06-04T04:10:52;101651.31;;;12.14;40.23
73566;BME280;61846;52.970;-3.168;2023-06-04T04:13:17;101659.88;;;11.98;40.75
73566;BME280;61846;52.970;-3.168;2023-06-04T04:15:43;101665.18;;;12.02;40.56
73566;BME280;61846;52.970;-3.168;2023-06-04T04:18:08;101668.46;;;11.93;40.70
73566;BME280;61846;52.970;-3.168;2023-06-04T04:20:34;101669.56;;;11.04;42.14
73566;BME280;61846;52.970;-3.168;2023-06-04T04:23:00;101667.72;;;11.79;41.16
73566;BME280;61846;52.970;-3.168;2023-06-04T04:25:25;101666.23;;;11.57;40.50
73566;BME280;61846;52.970;-3.168;2023-06-04T04:27:51;101663.56;;;11.83;40.50
73566;BME280;61846;52.970;-3.168;2023-06-04T04:30:17;101665.73;;;11.19;41.59
73566;BME280;61846;52.970;-3.168;2023-06-04T04:32:43;101663.91;;;11.78;40.32
73566;BME280;61846;52.970;-3.168;2023-06-04T04:35:08;101659.24;;;12.68;38.42
73566;BME280;61846;52.970;-3.168;2023-06-04T04:37:33;101659.16;;;12.54;38.85
73566;BME280;61846;52.970;-3.168;2023-06-04T04:39:59;101661.03;;;12.39;39.57
73566;BME280;61846;52.970;-3.168;2023-06-04T04:42:24;101666.59;;;11.94;40.92
73566;BME280;61846;52.970;-3.168;2023-06-04T04:44:49;101670.69;;;11.82;39.92
73566;BME280;61846;52.970;-3.168;2023-06-04T04:47:15;101672.93;;;11.81;44.65
73566;BME280;61846;52.970;-3.168;2023-06-04T04:49:40;101671.37;;;12.42;39.91
73566;BME280;61846;52.970;-3.168;2023-06-04T04:52:06;101668.43;;;11.51;41.02
73566;BME280;61846;52.970;-3.168;2023-06-04T04:54:31;101665.89;;;12.03;39.87
73566;BME280;61846;52.970;-3.168;2023-06-04T04:56:57;101666.96;;;11.90;40.02
73566;BME280;61846;52.970;-3.168;2023-06-04T04:59:22;101667.95;;;12.12;39.24
73566;BME280;61846;52.970;-3.168;2023-06-04T05:01:48;101667.30;;;12.13;39.53
73566;BME280;61846;52.970;-3.168;2023-06-04T05:04:13;101669.52;;;12.13;39.15
73566;BME280;61846;52.970;-3.168;2023-06-04T05:06:39;101671.64;;;12.48;39.74
73566;BME280;61846;52.970;-3.168;2023-06-04T05:09:04;101672.12;;;11.95;40.55
73566;BME280;61846;52.970;-3.168;2023-06-04T05:11:30;101673.71;;;11.78;40.15
73566;BME280;61846;52.970;-3.168;2023-06-04T05:13:55;101673.32;;;11.94;39.93
73566;BME280;61846;52.970;-3.168;2023-06-04T05:16:21;101674.49;;;11.78;40.15
73566;BME280;61846;52.970;-3.168;2023-06-04T05:18:46;101674.86;;;11.86;38.86
73566;BME280;61846;52.970;-3.168;2023-06-04T05:21:12;101676.46;;;11.87;39.31
73566;BME280;61846;52.970;-3.168;2023-06-04T05:23:38;101677.10;;;12.07;38.49
73566;BME280;61846;52.970;-3.168;2023-06-04T05:26:03;101679.38;;;12.09;39.21
73566;BME280;61846;52.970;-3.168;2023-06-04T05:28:29;101679.03;;;12.08;39.31
73566;BME280;61846;52.970;-3.168;2023-06-04T05:30:54;101677.64;;;11.83;40.65
73566;BME280;61846;52.970;-3.168;2023-06-04T05:33:20;101678.11;;;12.07;39.20
73566;BME280;61846;52.970;-3.168;2023-06-04T05:35:46;101673.35;;;11.82;40.64
73566;BME280;61846;52.970;-3.168;2023-06-04T05:38:11;101672.33;;;11.84;40.99
73566;BME280;61846;52.970;-3.168;2023-06-04T05:40:36;101668.12;;;12.47;39.26
73566;BME280;61846;52.970;-3.168;2023-06-04T05:43:02;101672.20;;;12.24;39.99
73566;BME280;61846;52.970;-3.168;2023-06-04T05:45:28;101673.21;;;12.28;39.78
73566;BME280;61846;52.970;-3.168;2023-06-04T05:47:54;101670.30;;;12.42;39.61
73566;BME280;61846;52.970;-3.168;2023-06-04T05:50:19;101674.01;;;12.13;40.11
73566;BME280;61846;52.970;-3.168;2023-06-04T05:52:44;101673.23;;;12.00;39.91
73566;BME280;61846;52.970;-3.168;2023-06-04T05:55:10;101672.27;;;12.98;38.93
73566;BME280;61846;52.970;-3.168;2023-06-04T05:57:36;101671.06;;;12.96;38.63
73566;BME280;61846;52.970;-3.168;2023-06-04T06:00:02;101675.88;;;12.77;39.26
73566;BME280;61846;52.970;-3.168;2023-06-04T06:02:27;101676.83;;;12.81;39.23
73566;BME280;61846;52.970;-3.168;2023-06-04T06:04:52;101679.11;;;13.22;38.43
73566;BME280;61846;52.970;-3.168;2023-06-04T06:07:18;101679.47;;;13.09;37.56
73566;BME280;61846;52.970;-3.168;2023-06-04T06:09:44;101678.08;;;12.81;37.69
73566;BME280;61846;52.970;-3.168;2023-06-04T06:12:09;101676.54;;;13.26;38.11
73566;BME280;61846;52.970;-3.168;2023-06-04T06:14:35;101673.75;;;13.49;37.64
73566;BME280;61846;52.970;-3.168;2023-06-04T06:17:00;101672.61;;;12.94;38.58
73566;BME280;61846;52.970;-3.168;2023-06-04T06:19:26;101674.11;;;13.34;37.66
73566;BME280;61846;52.970;-3.168;2023-06-04T06:21:51;101677.27;;;14.09;37.00
73566;BME280;61846;52.970;-3.168;2023-06-04T06:24:17;101680.90;;;13.87;36.61
73566;BME280;61846;52.970;-3.168;2023-06-04T06:26:43;101681.49;;;13.60;37.39
73566;BME280;61846;52.970;-3.168;2023-06-04T06:29:08;101675.80;;;13.77;36.41
73566;BME280;61846;52.970;-3.168;2023-06-04T06:31:33;101673.82;;;14.73;36.07
73566;BME280;61846;52.970;-3.168;2023-06-04T06:33:59;101671.87;;;14.94;35.08
73566;BME280;61846;52.970;-3.168;2023-06-04T06:36:25;101669.90;;;14.88;34.93
73566;BME280;61846;52.970;-3.168;2023-06-04T06:38:50;101667.92;;;15.23;34.58
73566;BME280;61846;52.970;-3.168;2023-06-04T06:41:16;101663.82;;;15.04;34.83
73566;BME280;61846;52.970;-3.168;2023-06-04T06:43:41;101664.88;;;14.81;34.70
73566;BME280;61846;52.970;-3.168;2023-06-04T06:46:07;101667.53;;;13.73;36.86
73566;BME280;61846;52.970;-3.168;2023-06-04T06:48:32;101670.88;;;14.68;35.73
73566;BME280;61846;52.970;-3.168;2023-06-04T06:50:58;101670.73;;;14.50;35.57
73566;BME280;61846;52.970;-3.168;2023-06-04T06:53:24;101664.53;;;15.30;35.09
73566;BME280;61846;52.970;-3.168;2023-06-04T06:55:49;101662.85;;;14.79;34.82
73566;BME280;61846;52.970;-3.168;2023-06-04T06:58:14;101665.57;;;15.03;34.38
73566;BME280;61846;52.970;-3.168;2023-06-04T07:00:40;101665.73;;;14.91;33.33
73566;BME280;61846;52.970;-3.168;2023-06-04T07:03:05;101667.00;;;15.45;33.81
73566;BME280;61846;52.970;-3.168;2023-06-04T07:05:31;101668.62;;;14.26;35.41
73566;BME280;61846;52.970;-3.168;2023-06-04T07:07:57;101672.94;;;14.02;35.01
73566;BME280;61846;52.970;-3.168;2023-06-04T07:10:22;101670.48;;;15.02;34.06
73566;BME280;61846;52.970;-3.168;2023-06-04T07:12:47;101667.83;;;13.97;36.12
73566;BME280;61846;52.970;-3.168;2023-06-04T07:15:13;101664.85;;;14.68;35.44
73566;BME280;61846;52.970;-3.168;2023-06-04T07:17:38;101667.53;;;14.64;34.96
73566;BME280;61846;52.970;-3.168;2023-06-04T07:20:05;101670.54;;;14.83;34.04
73566;BME280;61846;52.970;-3.168;2023-06-04T07:22:29;101666.06;;;15.73;34.35
73566;BME280;61846;52.970;-3.168;2023-06-04T07:24:55;101664.42;;;15.56;33.50
73566;BME280;61846;52.970;-3.168;2023-06-04T07:27:20;101660.19;;;15.64;34.07
73566;BME280;61846;52.970;-3.168;2023-06-04T07:29:46;101654.56;;;16.09;32.93
73566;BME280;61846;52.970;-3.168;2023-06-04T07:32:12;101654.13;;;16.53;32.73
73566;BME280;61846;52.970;-3.168;2023-06-04T07:34:38;101663.89;;;15.49;33.07
73566;BME280;61846;52.970;-3.168;2023-06-04T07:37:03;101662.88;;;16.02;32.99
73566;BME280;61846;52.970;-3.168;2023-06-04T07:39:28;101665.24;;;15.14;34.01
73566;BME280;61846;52.970;-3.168;2023-06-04T07:41:53;101664.68;;;14.41;34.68
73566;BME280;61846;52.970;-3.168;2023-06-04T07:44:18;101667.15;;;14.47;35.09
73566;BME280;61846;52.970;-3.168;2023-06-04T07:46:44;101662.54;;;16.06;33.29
73566;BME280;61846;52.970;-3.168;2023-06-04T07:49:09;101658.08;;;16.66;31.89
73566;BME280;61846;52.970;-3.168;2023-06-04T07:51:35;101656.58;;;16.74;31.91
73566;BME280;61846;52.970;-3.168;2023-06-04T07:54:00;101656.60;;;16.70;31.70
73566;BME280;61846;52.970;-3.168;2023-06-04T07:56:26;101656.01;;;16.83;31.02
73566;BME280;61846;52.970;-3.168;2023-06-04T07:58:51;101653.54;;;17.71;30.14
73566;BME280;61846;52.970;-3.168;2023-06-04T08:01:17;101654.14;;;16.77;30.13
73566;BME280;61846;52.970;-3.168;2023-06-04T08:03:43;101650.37;;;17.30;30.44
73566;BME280;61846;52.970;-3.168;2023-06-04T08:06:08;101656.10;;;16.01;31.61
73566;BME280;61846;52.970;-3.168;2023-06-04T08:08:33;101650.29;;;16.55;31.13
73566;BME280;61846;52.970;-3.168;2023-06-04T08:10:59;101647.58;;;16.39;31.56
73566;BME280;61846;52.970;-3.168;2023-06-04T08:13:24;101649.92;;;17.02;30.31
73566;BME280;61846;52.970;-3.168;2023-06-04T08:15:49;101652.13;;;16.71;30.90
73566;BME280;61846;52.970;-3.168;2023-06-04T08:18:15;101644.40;;;18.21;30.58
73566;BME280;61846;52.970;-3.168;2023-06-04T08:20:40;101644.61;;;18.25;29.65
73566;BME280;61846;52.970;-3.168;2023-06-04T08:23:06;101643.78;;;17.90;29.90
73566;BME280;61846;52.970;-3.168;2023-06-04T08:25:31;101643.87;;;17.60;31.34
73566;BME280;61846;52.970;-3.168;2023-06-04T08:27:56;101642.35;;;17.22;32.06
73566;BME280;61846;52.970;-3.168;2023-06-04T08:30:22;101644.97;;;18.09;30.07
73566;BME280;61846;52.970;-3.168;2023-06-04T08:32:47;101645.38;;;17.51;31.40
73566;BME280;61846;52.970;-3.168;2023-06-04T08:35:13;101651.09;;;17.18;31.01
73566;BME280;61846;52.970;-3.168;2023-06-04T08:37:38;101648.04;;;17.64;31.62
73566;BME280;61846;52.970;-3.168;2023-06-04T08:40:04;101653.72;;;16.56;31.46
73566;BME280;61846;52.970;-3.168;2023-06-04T08:42:30;101648.53;;;17.56;30.70
73566;BME280;61846;52.970;-3.168;2023-06-04T08:44:54;101647.37;;;18.64;28.94
73566;BME280;61846;52.970;-3.168;2023-06-04T08:47:20;101651.89;;;18.44;29.38
73566;BME280;61846;52.970;-3.168;2023-06-04T08:49:48;101646.75;;;18.46;27.96
73566;BME280;61846;52.970;-3.168;2023-06-04T08:52:10;101643.09;;;18.25;30.55
73566;BME280;61846;52.970;-3.168;2023-06-04T08:54:35;101643.24;;;18.60;29.74
73566;BME280;61846;52.970;-3.168;2023-06-04T08:57:00;101645.71;;;18.32;29.35
73566;BME280;61846;52.970;-3.168;2023-06-04T08:59:27;101640.10;;;19.49;29.36
73566;BME280;61846;52.970;-3.168;2023-06-04T09:01:53;101642.61;;;17.00;30.16
73566;BME280;61846;52.970;-3.168;2023-06-04T09:04:17;101644.98;;;16.60;31.13
73566;BME280;61846;52.970;-3.168;2023-06-04T09:06:43;101641.40;;;17.29;30.58
73566;BME280;61846;52.970;-3.168;2023-06-04T09:09:09;101644.25;;;18.38;29.27
73566;BME280;61846;52.970;-3.168;2023-06-04T09:11:36;101643.50;;;18.60;29.14
73566;BME280;61846;52.970;-3.168;2023-06-04T09:13:59;101643.76;;;18.31;28.52
73566;BME280;61846;52.970;-3.168;2023-06-04T09:16:23;101642.77;;;19.36;29.79
73566;BME280;61846;52.970;-3.168;2023-06-04T09:18:49;101641.25;;;18.43;27.95
73566;BME280;61846;52.970;-3.168;2023-06-04T09:21:14;101641.12;;;18.18;29.06
73566;BME280;61846;52.970;-3.168;2023-06-04T09:23:44;101643.53;;;18.01;29.15
73566;BME280;61846;52.970;-3.168;2023-06-04T09:26:07;101642.14;;;18.44;28.89
73566;BME280;61846;52.970;-3.168;2023-06-04T09:28:30;101640.37;;;18.16;29.99
73566;BME280;61846;52.970;-3.168;2023-06-04T09:30:55;101637.85;;;19.05;29.55
73566;BME280;61846;52.970;-3.168;2023-06-04T09:33:20;101636.83;;;19.81;28.11
73566;BME280;61846;52.970;-3.168;2023-06-04T09:35:53;101632.69;;;19.41;27.74
73566;BME280;61846;52.970;-3.168;2023-06-04T09:38:12;101629.75;;;19.72;27.33
73566;BME280;61846;52.970;-3.168;2023-06-04T09:40:38;101629.62;;;19.60;25.98
73566;BME280;61846;52.970;-3.168;2023-06-04T09:43:02;101624.11;;;20.18;27.03
73566;BME280;61846;52.970;-3.168;2023-06-04T09:45:28;101625.95;;;20.41;26.68
73566;BME280;61846;52.970;-3.168;2023-06-04T09:47:53;101622.29;;;20.52;27.41
73566;BME280;61846;52.970;-3.168;2023-06-04T09:50:25;101622.79;;;20.57;24.43
73566;BME280;61846;52.970;-3.168;2023-06-04T09:52:44;101620.39;;;20.97;25.34
73566;BME280;61846;52.970;-3.168;2023-06-04T09:55:17;101622.79;;;19.56;26.36
73566;BME280;61846;52.970;-3.168;2023-06-04T09:57:34;101618.00;;;21.26;24.66
73566;BME280;61846;52.970;-3.168;2023-06-04T09:59:59;101617.31;;;20.38;26.61
73566;BME280;61846;52.970;-3.168;2023-06-04T10:02:27;101626.90;;;20.96;25.36
73566;BME280;61846;52.970;-3.168;2023-06-04T10:04:54;101625.70;;;21.03;25.50
73566;BME280;61846;52.970;-3.168;2023-06-04T10:07:16;101623.47;;;21.98;24.25
73566;BME280;61846;52.970;-3.168;2023-06-04T10:09:43;101624.78;;;21.66;23.38
73566;BME280;61846;52.970;-3.168;2023-06-04T10:12:06;101629.00;;;21.19;24.00
73566;BME280;61846;52.970;-3.168;2023-06-04T10:14:35;101622.54;;;20.94;24.90
73566;BME280;61846;52.970;-3.168;2023-06-04T10:16:58;101630.98;;;20.44;25.67
73566;BME280;61846;52.970;-3.168;2023-06-04T10:19:22;101626.48;;;21.40;24.70
73566;BME280;61846;52.970;-3.168;2023-06-04T10:21:47;101630.01;;;22.08;24.40
73566;BME280;61846;52.970;-3.168;2023-06-04T10:24:12;101626.69;;;21.32;24.21
73566;BME280;61846;52.970;-3.168;2023-06-04T10:26:39;101628.35;;;21.39;24.25
73566;BME280;61846;52.970;-3.168;2023-06-04T10:29:03;101630.57;;;20.29;25.29
73566;BME280;61846;52.970;-3.168;2023-06-04T10:31:29;101630.27;;;21.37;24.34
73566;BME280;61846;52.970;-3.168;2023-06-04T10:33:54;101629.79;;;21.93;23.65
73566;BME280;61846;52.970;-3.168;2023-06-04T10:36:20;101627.36;;;21.89;24.60
73566;BME280;61846;52.970;-3.168;2023-06-04T10:38:46;101629.05;;;21.50;23.66
73566;BME280;61846;52.970;-3.168;2023-06-04T10:41:13;101625.57;;;22.22;24.47
73566;BME280;61846;52.970;-3.168;2023-06-04T10:43:35;101631.33;;;22.81;22.23
73566;BME280;61846;52.970;-3.168;2023-06-04T10:48:25;101631.73;;;23.03;23.08
73566;BME280;61846;52.970;-3.168;2023-06-04T10:50:52;101631.94;;;22.79;23.10
73566;BME280;61846;52.970;-3.168;2023-06-04T10:53:17;101627.09;;;22.62;23.85
73566;BME280;61846;52.970;-3.168;2023-06-04T10:55:44;101629.53;;;24.02;23.13
73566;BME280;61846;52.970;-3.168;2023-06-04T10:58:08;101626.35;;;23.94;23.06
73566;BME280;61846;52.970;-3.168;2023-06-04T11:00:36;101624.62;;;23.09;23.06
73566;BME280;61846;52.970;-3.168;2023-06-04T11:02:59;101627.76;;;24.23;21.65
73566;BME280;61846;52.970;-3.168;2023-06-04T11:05:34;101629.15;;;24.35;22.71
73566;BME280;61846;52.970;-3.168;2023-06-04T11:07:49;101629.85;;;24.54;22.52
73566;BME280;61846;52.970;-3.168;2023-06-04T11:10:17;101632.60;;;23.37;21.75
73566;BME280;61846;52.970;-3.168;2023-06-04T11:12:43;101625.91;;;24.14;21.98
73566;BME280;61846;52.970;-3.168;2023-06-04T11:15:07;101626.82;;;23.06;22.48
73566;BME280;61846;52.970;-3.168;2023-06-04T11:17:32;101631.42;;;23.58;22.41
73566;BME280;61846;52.970;-3.168;2023-06-04T11:19:58;101634.04;;;23.47;22.90
73566;BME280;61846;52.970;-3.168;2023-06-04T11:22:24;101631.87;;;24.79;21.17
73566;BME280;61846;52.970;-3.168;2023-06-04T11:24:49;101630.02;;;23.65;23.23
73566;BME280;61846;52.970;-3.168;2023-06-04T11:27:15;101622.83;;;22.98;22.42
73566;BME280;61846;52.970;-3.168;2023-06-04T11:29:40;101626.72;;;24.06;22.09
73566;BME280;61846;52.970;-3.168;2023-06-04T11:32:06;101630.49;;;23.71;22.09
73566;BME280;61846;52.970;-3.168;2023-06-04T11:34:32;101630.71;;;22.84;23.49
73566;BME280;61846;52.970;-3.168;2023-06-04T11:36:56;101630.29;;;22.33;24.16
73566;BME280;61846;52.970;-3.168;2023-06-04T11:39:22;101625.83;;;23.57;22.58
73566;BME280;61846;52.970;-3.168;2023-06-04T11:41:48;101622.80;;;23.03;22.53
73566;BME280;61846;52.970;-3.168;2023-06-04T11:44:13;101623.59;;;23.77;22.20
73566;BME280;61846;52.970;-3.168;2023-06-04T11:46:40;101627.74;;;24.22;20.99
73566;BME280;61846;52.970;-3.168;2023-06-04T11:49:03;101620.31;;;23.92;20.55
73566;BME280;61846;52.970;-3.168;2023-06-04T11:51:29;101621.18;;;24.44;21.17
73566;BME280;61846;52.970;-3.168;2023-06-04T11:53:54;101621.75;;;24.17;21.06
73566;BME280;61846;52.970;-3.168;2023-06-04T11:56:19;101618.22;;;23.96;21.80
73566;BME280;61846;52.970;-3.168;2023-06-04T11:58:45;101617.15;;;23.53;21.12
73566;BME280;61846;52.970;-3.168;2023-06-04T12:01:10;101621.34;;;23.57;20.87
73566;BME280;61846;52.970;-3.168;2023-06-04T12:03:36;101616.42;;;22.97;22.60
73566;BME280;61846;52.970;-3.168;2023-06-04T12:06:10;101613.33;;;23.04;23.08
73566;BME280;61846;52.970;-3.168;2023-06-04T12:08:25;101610.36;;;23.97;20.41
73566;BME280;61846;52.970;-3.168;2023-06-04T12:10:51;101611.06;;;24.75;21.77
73566;BME280;61846;52.970;-3.168;2023-06-04T12:13:17;101602.38;;;25.09;20.15
73566;BME280;61846;52.970;-3.168;2023-06-04T12:15:42;101604.18;;;25.34;21.12
73566;BME280;61846;52.970;-3.168;2023-06-04T12:18:07;101601.05;;;25.47;19.07
73566;BME280;61846;52.970;-3.168;2023-06-04T12:20:34;101600.75;;;24.69;21.27
73566;BME280;61846;52.970;-3.168;2023-06-04T12:22:58;101602.39;;;24.44;20.47
73566;BME280;61846;52.970;-3.168;2023-06-04T12:25:25;101594.33;;;25.06;19.79
73566;BME280;61846;52.970;-3.168;2023-06-04T12:27:49;101595.94;;;25.21;20.11
73566;BME280;61846;52.970;-3.168;2023-06-04T12:30:14;101595.62;;;26.41;18.18
73566;BME280;61846;52.970;-3.168;2023-06-04T12:32:39;101594.53;;;25.13;20.75